sensor_id;sensor_type;location;lat;lon;timestamp;P1;durP1;ratioP1;P2;durP2;ratioP2
6209;SDS011;3138;52.550;13.148;2023-11-18T00:02:13;13.27;;;9.87;;
6209;SDS011;3138;52.550;13.148;2023-11-18T00:04:39;12.10;;;9.10;;
6209;SDS011;3138;52.550;13.148;2023-11-18T00:07:08;15.60;;;10.77;;
6209;SDS011;3138;52.550;13.148;2023-11-18T00:09:34;12.57;;;9.63;;
6209;SDS011;3138;52.550;13.148;2023-11-18T00:12:02;12.63;;;9.43;;
6209;SDS011;3138;52.550;13.148;2023-11-18T00:14:30;18.83;;;10.23;;
6209;SDS011;3138;52.550;13.148;2023-11-18T00:16:57;16.23;;;9.90;;
6209;SDS011;3138;52.550;13.148;2023-11-18T00:19:24;14.93;;;10.20;;
6209;SDS011;3138;52.550;13.148;2023-11-18T00:21:51;17.27;;;10.33;;
6209;SDS011;3138;52.550;13.148;2023-11-18T00:24:19;16.03;;;10.97;;
6209;SDS011;3138;52.550;13.148;2023-11-18T00:26:46;15.10;;;10.33;;
6209;SDS011;3138;52.550;13.148;2023-11-18T00:29:13;13.00;;;10.07;;
6209;SDS011;3138;52.550;13.148;2023-11-18T00:31:40;17.33;;;10.30;;
6209;SDS011;3138;52.550;13.148;2023-11-18T00:34:07;15.43;;;9.90;;
6209;SDS011;3138;52.550;13.148;2023-11-18T00:36:34;15.40;;;9.47;;
6209;SDS011;3138;52.550;13.148;2023-11-18T00:39:00;12.40;;;9.63;;
6209;SDS011;3138;52.550;13.148;2023-11-18T00:41:30;14.90;;;10.90;;
6209;SDS011;3138;52.550;13.148;2023-11-18T00:43:57;13.40;;;10.20;;
6209;SDS011;3138;52.550;13.148;2023-11-18T00:46:24;15.60;;;11.93;;
6209;SDS011;3138;52.550;13.148;2023-11-18T00:48:51;16.50;;;10.90;;
6209;SDS011;3138;52.550;13.148;2023-11-18T00:51:17;16.10;;;10.87;;
6209;SDS011;3138;52.550;13.148;2023-11-18T00:53:44;15.47;;;10.97;;
6209;SDS011;3138;52.550;13.148;2023-11-18T00:56:12;14.73;;;11.07;;
6209;SDS011;3138;52.550;13.148;2023-11-18T00:58:44;12.77;;;10.37;;
6209;SDS011;3138;52.550;13.148;2023-11-18T01:01:11;18.80;;;11.20;;
6209;SDS011;3138;52.550;13.148;2023-11-18T01:03:38;16.00;;;9.70;;
6209;SDS011;3138;52.550;13.148;2023-11-18T01:06:04;13.90;;;9.77;;
6209;SDS011;3138;52.550;13.148;2023-11-18T01:08:32;16.20;;;9.53;;
6209;SDS011;3138;52.550;13.148;2023-11-18T01:10:59;13.30;;;8.90;;
6209;SDS011;3138;52.550;13.148;2023-11-18T01:13:25;14.40;;;11.23;;
6209;SDS011;3138;52.550;13.148;2023-11-18T01:15:54;11.63;;;9.90;;
6209;SDS011;3138;52.550;13.148;2023-11-18T01:18:20;17.93;;;11.90;;
6209;SDS011;3138;52.550;13.148;2023-11-18T01:20:47;18.07;;;11.53;;
6209;SDS011;3138;52.550;13.148;2023-11-18T01:23:14;17.20;;;11.70;;
6209;SDS011;3138;52.550;13.148;2023-11-18T01:25:41;15.40;;;10.40;;
6209;SDS011;3138;52.550;13.148;2023-11-18T01:28:09;12.90;;;10.50;;
6209;SDS011;3138;52.550;13.148;2023-11-18T01:30:36;18.00;;;10.80;;
6209;SDS011;3138;52.550;13.148;2023-11-18T01:33:04;18.80;;;10.80;;
6209;SDS011;3138;52.550;13.148;2023-11-18T01:35:31;15.73;;;11.73;;
6209;SDS011;3138;52.550;13.148;2023-11-18T01:37:57;14.00;;;11.07;;
6209;SDS011;3138;52.550;13.148;2023-11-18T01:40:24;14.20;;;10.77;;
6209;SDS011;3138;52.550;13.148;2023-11-18T01:42:51;13.50;;;9.77;;
6209;SDS011;3138;52.550;13.148;2023-11-18T01:45:18;18.53;;;10.80;;
6209;SDS011;3138;52.550;13.148;2023-11-18T01:47:45;21.23;;;10.23;;
6209;SDS011;3138;52.550;13.148;2023-11-18T01:50:15;14.67;;;10.03;;
6209;SDS011;3138;52.550;13.148;2023-11-18T01:52:43;12.37;;;11.07;;
6209;SDS011;3138;52.550;13.148;2023-11-18T01:55:12;15.63;;;10.20;;
6209;SDS011;3138;52.550;13.148;2023-11-18T01:57:42;14.07;;;8.70;;
6209;SDS011;3138;52.550;13.148;2023-11-18T02:00:11;11.20;;;10.00;;
6209;SDS011;3138;52.550;13.148;2023-11-18T02:02:38;13.13;;;11.17;;
6209;SDS011;3138;52.550;13.148;2023-11-18T02:05:05;19.00;;;11.63;;
6209;SDS011;3138;52.550;13.148;2023-11-18T02:07:34;13.80;;;10.40;;
6209;SDS011;3138;52.550;13.148;2023-11-18T02:10:02;15.63;;;10.90;;
6209;SDS011;3138;52.550;13.148;2023-11-18T02:12:35;14.43;;;10.53;;
6209;SDS011;3138;52.550;13.148;2023-11-18T02:15:09;13.33;;;9.70;;
6209;SDS011;3138;52.550;13.148;2023-11-18T02:17:38;17.13;;;11.07;;
6209;SDS011;3138;52.550;13.148;2023-11-18T02:20:07;13.93;;;10.57;;
6209;SDS011;3138;52.550;13.148;2023-11-18T02:22:42;15.83;;;11.20;;
6209;SDS011;3138;52.550;13.148;2023-11-18T02:25:09;15.80;;;11.10;;
6209;SDS011;3138;52.550;13.148;2023-11-18T02:27:42;16.17;;;11.60;;
6209;SDS011;3138;52.550;13.148;2023-11-18T02:30:10;17.80;;;10.10;;
6209;SDS011;3138;52.550;13.148;2023-11-18T02:32:42;14.10;;;9.57;;
6209;SDS011;3138;52.550;13.148;2023-11-18T02:35:15;23.63;;;10.90;;
6209;SDS011;3138;52.550;13.148;2023-11-18T02:37:50;14.70;;;10.50;;
6209;SDS011;3138;52.550;13.148;2023-11-18T02:40:20;17.73;;;11.03;;
6209;SDS011;3138;52.550;13.148;2023-11-18T02:42:56;16.70;;;11.43;;
6209;SDS011;3138;52.550;13.148;2023-11-18T02:45:25;11.43;;;9.53;;
6209;SDS011;3138;52.550;13.148;2023-11-18T02:47:53;17.23;;;11.00;;
6209;SDS011;3138;52.550;13.148;2023-11-18T02:50:22;14.70;;;10.70;;
6209;SDS011;3138;52.550;13.148;2023-11-18T02:52:49;20.10;;;10.20;;
6209;SDS011;3138;52.550;13.148;2023-11-18T02:55:16;15.90;;;10.77;;
6209;SDS011;3138;52.550;13.148;2023-11-18T02:57:43;14.83;;;10.90;;
6209;SDS011;3138;52.550;13.148;2023-11-18T03:00:12;17.93;;;11.50;;
6209;SDS011;3138;52.550;13.148;2023-11-18T03:02:43;17.27;;;10.67;;
6209;SDS011;3138;52.550;13.148;2023-11-18T03:05:11;16.00;;;11.27;;
6209;SDS011;3138;52.550;13.148;2023-11-18T03:07:38;31.10;;;13.63;;
6209;SDS011;3138;52.550;13.148;2023-11-18T03:10:05;22.93;;;11.67;;
6209;SDS011;3138;52.550;13.148;2023-11-18T03:12:36;16.70;;;11.40;;
6209;SDS011;3138;52.550;13.148;2023-11-18T03:15:03;19.63;;;12.30;;
6209;SDS011;3138;52.550;13.148;2023-11-18T03:17:33;17.20;;;12.77;;
6209;SDS011;3138;52.550;13.148;2023-11-18T03:19:59;24.10;;;12.17;;
6209;SDS011;3138;52.550;13.148;2023-11-18T03:22:26;20.73;;;11.27;;
6209;SDS011;3138;52.550;13.148;2023-11-18T03:24:53;18.37;;;12.57;;
6209;SDS011;3138;52.550;13.148;2023-11-18T03:27:21;26.13;;;12.07;;
6209;SDS011;3138;52.550;13.148;2023-11-18T03:29:48;16.90;;;12.33;;
6209;SDS011;3138;52.550;13.148;2023-11-18T03:32:15;19.53;;;13.10;;
6209;SDS011;3138;52.550;13.148;2023-11-18T03:34:43;22.50;;;12.10;;
6209;SDS011;3138;52.550;13.148;2023-11-18T03:37:10;22.70;;;12.60;;
6209;SDS011;3138;52.550;13.148;2023-11-18T03:39:37;25.53;;;13.30;;
6209;SDS011;3138;52.550;13.148;2023-11-18T03:42:04;21.10;;;12.47;;
6209;SDS011;3138;52.550;13.148;2023-11-18T03:44:31;16.63;;;11.90;;
6209;SDS011;3138;52.550;13.148;2023-11-18T03:46:58;23.03;;;12.70;;
6209;SDS011;3138;52.550;13.148;2023-11-18T03:49:28;18.83;;;12.83;;
6209;SDS011;3138;52.550;13.148;2023-11-18T03:51:56;23.43;;;13.27;;
6209;SDS011;3138;52.550;13.148;2023-11-18T03:54:23;20.13;;;12.87;;
6209;SDS011;3138;52.550;13.148;2023-11-18T03:56:49;25.13;;;13.80;;
6209;SDS011;3138;52.550;13.148;2023-11-18T03:59:16;23.77;;;12.60;;
6209;SDS011;3138;52.550;13.148;2023-11-18T04:01:43;24.10;;;14.60;;
6209;SDS011;3138;52.550;13.148;2023-11-18T04:04:10;21.43;;;12.67;;
6209;SDS011;3138;52.550;13.148;2023-11-18T04:06:37;25.30;;;15.67;;
6209;SDS011;3138;52.550;13.148;2023-11-18T04:09:05;25.93;;;14.27;;
6209;SDS011;3138;52.550;13.148;2023-11-18T04:11:34;27.57;;;15.87;;
6209;SDS011;3138;52.550;13.148;2023-11-18T04:14:01;26.20;;;14.60;;
6209;SDS011;3138;52.550;13.148;2023-11-18T04:16:28;20.80;;;14.70;;
6209;SDS011;3138;52.550;13.148;2023-11-18T04:18:55;29.03;;;15.87;;
6209;SDS011;3138;52.550;13.148;2023-11-18T04:21:22;28.33;;;13.93;;
6209;SDS011;3138;52.550;13.148;2023-11-18T04:23:48;25.17;;;13.67;;
6209;SDS011;3138;52.550;13.148;2023-11-18T04:26:16;19.10;;;13.77;;
6209;SDS011;3138;52.550;13.148;2023-11-18T04:28:43;22.97;;;14.43;;
6209;SDS011;3138;52.550;13.148;2023-11-18T04:31:10;23.63;;;15.07;;
6209;SDS011;3138;52.550;13.148;2023-11-18T04:33:37;24.00;;;14.73;;
6209;SDS011;3138;52.550;13.148;2023-11-18T04:36:05;26.87;;;15.40;;
6209;SDS011;3138;52.550;13.148;2023-11-18T04:38:35;22.20;;;13.63;;
6209;SDS011;3138;52.550;13.148;2023-11-18T04:41:02;24.00;;;14.47;;
6209;SDS011;3138;52.550;13.148;2023-11-18T04:43:33;19.30;;;13.97;;
6209;SDS011;3138;52.550;13.148;2023-11-18T04:46:00;20.13;;;12.13;;
6209;SDS011;3138;52.550;13.148;2023-11-18T04:48:27;21.13;;;13.60;;
6209;SDS011;3138;52.550;13.148;2023-11-18T04:50:54;19.43;;;12.83;;
6209;SDS011;3138;52.550;13.148;2023-11-18T04:53:21;19.47;;;13.00;;
6209;SDS011;3138;52.550;13.148;2023-11-18T04:55:47;33.03;;;13.67;;
6209;SDS011;3138;52.550;13.148;2023-11-18T04:58:14;22.47;;;13.87;;
6209;SDS011;3138;52.550;13.148;2023-11-18T05:00:43;31.07;;;13.83;;
6209;SDS011;3138;52.550;13.148;2023-11-18T05:03:09;21.03;;;11.93;;
6209;SDS011;3138;52.550;13.148;2023-11-18T05:05:38;15.93;;;11.60;;
6209;SDS011;3138;52.550;13.148;2023-11-18T05:08:05;20.93;;;13.57;;
6209;SDS011;3138;52.550;13.148;2023-11-18T05:10:33;16.90;;;12.40;;
6209;SDS011;3138;52.550;13.148;2023-11-18T05:13:00;22.77;;;14.00;;
6209;SDS011;3138;52.550;13.148;2023-11-18T05:15:27;18.33;;;13.20;;
6209;SDS011;3138;52.550;13.148;2023-11-18T05:17:56;23.10;;;13.87;;
6209;SDS011;3138;52.550;13.148;2023-11-18T05:20:23;26.50;;;12.87;;
6209;SDS011;3138;52.550;13.148;2023-11-18T05:22:50;25.60;;;11.97;;
6209;SDS011;3138;52.550;13.148;2023-11-18T05:25:17;20.33;;;12.90;;
6209;SDS011;3138;52.550;13.148;2023-11-18T05:27:46;18.03;;;12.73;;
6209;SDS011;3138;52.550;13.148;2023-11-18T05:30:13;21.63;;;13.97;;
6209;SDS011;3138;52.550;13.148;2023-11-18T05:32:40;19.27;;;12.83;;
6209;SDS011;3138;52.550;13.148;2023-11-18T05:35:08;25.37;;;14.30;;
6209;SDS011;3138;52.550;13.148;2023-11-18T05:37:37;21.70;;;13.20;;
6209;SDS011;3138;52.550;13.148;2023-11-18T05:40:06;24.20;;;13.00;;
6209;SDS011;3138;52.550;13.148;2023-11-18T05:42:34;21.67;;;13.93;;
6209;SDS011;3138;52.550;13.148;2023-11-18T05:45:02;18.20;;;13.07;;
6209;SDS011;3138;52.550;13.148;2023-11-18T05:47:30;21.27;;;14.10;;
6209;SDS011;3138;52.550;13.148;2023-11-18T05:49:57;24.63;;;15.13;;
6209;SDS011;3138;52.550;13.148;2023-11-18T05:52:25;24.10;;;13.73;;
6209;SDS011;3138;52.550;13.148;2023-11-18T05:54:52;23.53;;;12.70;;
6209;SDS011;3138;52.550;13.148;2023-11-18T05:57:19;23.53;;;14.17;;
6209;SDS011;3138;52.550;13.148;2023-11-18T05:59:46;22.43;;;14.00;;
6209;SDS011;3138;52.550;13.148;2023-11-18T06:02:14;19.83;;;13.80;;
6209;SDS011;3138;52.550;13.148;2023-11-18T06:04:43;20.87;;;14.23;;
6209;SDS011;3138;52.550;13.148;2023-11-18T06:07:10;22.07;;;13.87;;
6209;SDS011;3138;52.550;13.148;2023-11-18T06:09:39;20.53;;;12.60;;
6209;SDS011;3138;52.550;13.148;2023-11-18T06:12:07;20.60;;;13.40;;
6209;SDS011;3138;52.550;13.148;2023-11-18T06:14:35;20.50;;;14.30;;
6209;SDS011;3138;52.550;13.148;2023-11-18T06:17:02;28.83;;;14.87;;
6209;SDS011;3138;52.550;13.148;2023-11-18T06:19:29;23.40;;;14.87;;
6209;SDS011;3138;52.550;13.148;2023-11-18T06:21:56;21.53;;;13.80;;
6209;SDS011;3138;52.550;13.148;2023-11-18T06:24:23;21.03;;;14.30;;
6209;SDS011;3138;52.550;13.148;2023-11-18T06:26:51;20.70;;;14.90;;
6209;SDS011;3138;52.550;13.148;2023-11-18T06:29:18;26.40;;;13.80;;
6209;SDS011;3138;52.550;13.148;2023-11-18T06:31:44;22.97;;;13.43;;
6209;SDS011;3138;52.550;13.148;2023-11-18T06:34:12;24.03;;;15.10;;
6209;SDS011;3138;52.550;13.148;2023-11-18T06:36:38;27.73;;;15.80;;
6209;SDS011;3138;52.550;13.148;2023-11-18T06:39:06;29.20;;;14.67;;
6209;SDS011;3138;52.550;13.148;2023-11-18T06:41:33;25.07;;;14.80;;
6209;SDS011;3138;52.550;13.148;2023-11-18T06:44:04;22.70;;;15.03;;
6209;SDS011;3138;52.550;13.148;2023-11-18T06:46:37;24.40;;;16.40;;
6209;SDS011;3138;52.550;13.148;2023-11-18T06:49:05;26.70;;;14.37;;
6209;SDS011;3138;52.550;13.148;2023-11-18T06:51:33;30.10;;;16.37;;
6209;SDS011;3138;52.550;13.148;2023-11-18T06:54:03;29.93;;;15.03;;
6209;SDS011;3138;52.550;13.148;2023-11-18T06:56:34;23.00;;;13.50;;
6209;SDS011;3138;52.550;13.148;2023-11-18T06:59:02;24.27;;;15.63;;
6209;SDS011;3138;52.550;13.148;2023-11-18T07:01:31;21.50;;;14.23;;
6209;SDS011;3138;52.550;13.148;2023-11-18T07:04:00;22.43;;;14.93;;
6209;SDS011;3138;52.550;13.148;2023-11-18T07:06:27;22.40;;;14.70;;
6209;SDS011;3138;52.550;13.148;2023-11-18T07:08:54;21.90;;;13.73;;
6209;SDS011;3138;52.550;13.148;2023-11-18T07:11:25;29.17;;;14.80;;
6209;SDS011;3138;52.550;13.148;2023-11-18T07:13:52;25.40;;;14.53;;
6209;SDS011;3138;52.550;13.148;2023-11-18T07:16:23;22.80;;;15.13;;
6209;SDS011;3138;52.550;13.148;2023-11-18T07:18:50;23.43;;;14.93;;
6209;SDS011;3138;52.550;13.148;2023-11-18T07:21:17;26.20;;;15.47;;
6209;SDS011;3138;52.550;13.148;2023-11-18T07:23:44;22.43;;;13.63;;
6209;SDS011;3138;52.550;13.148;2023-11-18T07:26:11;21.53;;;13.50;;
6209;SDS011;3138;52.550;13.148;2023-11-18T07:28:39;28.23;;;16.00;;
6209;SDS011;3138;52.550;13.148;2023-11-18T07:31:05;22.77;;;13.70;;
6209;SDS011;3138;52.550;13.148;2023-11-18T07:33:34;26.97;;;16.00;;
6209;SDS011;3138;52.550;13.148;2023-11-18T07:36:02;27.50;;;14.70;;
6209;SDS011;3138;52.550;13.148;2023-11-18T07:38:31;24.10;;;14.03;;
6209;SDS011;3138;52.550;13.148;2023-11-18T07:40:59;23.30;;;14.83;;
6209;SDS011;3138;52.550;13.148;2023-11-18T07:43:29;35.73;;;17.67;;
6209;SDS011;3138;52.550;13.148;2023-11-18T07:45:56;27.23;;;15.70;;
6209;SDS011;3138;52.550;13.148;2023-11-18T07:48:23;30.30;;;15.70;;
6209;SDS011;3138;52.550;13.148;2023-11-18T07:50:51;22.80;;;14.40;;
6209;SDS011;3138;52.550;13.148;2023-11-18T07:53:18;22.33;;;13.70;;
6209;SDS011;3138;52.550;13.148;2023-11-18T07:55:45;25.13;;;14.93;;
6209;SDS011;3138;52.550;13.148;2023-11-18T07:58:12;25.70;;;14.83;;
6209;SDS011;3138;52.550;13.148;2023-11-18T08:00:39;24.23;;;14.13;;
6209;SDS011;3138;52.550;13.148;2023-11-18T08:03:08;24.33;;;14.40;;
6209;SDS011;3138;52.550;13.148;2023-11-18T08:05:37;24.43;;;14.53;;
6209;SDS011;3138;52.550;13.148;2023-11-18T08:08:06;29.10;;;15.97;;
6209;SDS011;3138;52.550;13.148;2023-11-18T08:10:33;28.10;;;16.40;;
6209;SDS011;3138;52.550;13.148;2023-11-18T08:13:02;23.80;;;14.70;;
6209;SDS011;3138;52.550;13.148;2023-11-18T08:15:29;29.93;;;16.07;;
6209;SDS011;3138;52.550;13.148;2023-11-18T08:17:56;27.10;;;13.93;;
6209;SDS011;3138;52.550;13.148;2023-11-18T08:20:24;46.07;;;16.47;;
6209;SDS011;3138;52.550;13.148;2023-11-18T08:22:51;26.90;;;17.43;;
6209;SDS011;3138;52.550;13.148;2023-11-18T08:25:19;26.03;;;15.93;;
6209;SDS011;3138;52.550;13.148;2023-11-18T08:27:46;36.43;;;17.93;;
6209;SDS011;3138;52.550;13.148;2023-11-18T08:30:14;29.03;;;15.80;;
6209;SDS011;3138;52.550;13.148;2023-11-18T08:32:43;26.83;;;16.20;;
6209;SDS011;3138;52.550;13.148;2023-11-18T08:35:11;35.17;;;18.33;;
6209;SDS011;3138;52.550;13.148;2023-11-18T08:37:39;25.43;;;16.43;;
6209;SDS011;3138;52.550;13.148;2023-11-18T08:40:07;27.17;;;16.70;;
6209;SDS011;3138;52.550;13.148;2023-11-18T08:42:41;36.43;;;17.37;;
6209;SDS011;3138;52.550;13.148;2023-11-18T08:45:13;27.60;;;17.10;;
6209;SDS011;3138;52.550;13.148;2023-11-18T08:47:42;33.53;;;17.90;;
6209;SDS011;3138;52.550;13.148;2023-11-18T08:50:09;39.13;;;19.10;;
6209;SDS011;3138;52.550;13.148;2023-11-18T08:52:37;34.97;;;19.10;;
6209;SDS011;3138;52.550;13.148;2023-11-18T08:55:08;28.50;;;16.67;;
6209;SDS011;3138;52.550;13.148;2023-11-18T08:57:44;27.60;;;16.87;;
6209;SDS011;3138;52.550;13.148;2023-11-18T09:00:24;34.93;;;17.70;;
6209;SDS011;3138;52.550;13.148;2023-11-18T09:03:09;31.53;;;16.57;;
6209;SDS011;3138;52.550;13.148;2023-11-18T09:05:42;32.07;;;18.37;;
6209;SDS011;3138;52.550;13.148;2023-11-18T09:08:21;35.30;;;18.97;;
6209;SDS011;3138;52.550;13.148;2023-11-18T09:10:49;32.20;;;17.73;;
6209;SDS011;3138;52.550;13.148;2023-11-18T09:13:20;31.93;;;18.93;;
6209;SDS011;3138;52.550;13.148;2023-11-18T09:15:47;30.93;;;16.50;;
6209;SDS011;3138;52.550;13.148;2023-11-18T09:18:14;30.30;;;17.60;;
6209;SDS011;3138;52.550;13.148;2023-11-18T09:20:43;27.83;;;16.20;;
6209;SDS011;3138;52.550;13.148;2023-11-18T09:23:10;30.93;;;18.70;;
6209;SDS011;3138;52.550;13.148;2023-11-18T09:25:38;26.20;;;17.60;;
6209;SDS011;3138;52.550;13.148;2023-11-18T09:28:06;31.73;;;17.33;;
6209;SDS011;3138;52.550;13.148;2023-11-18T09:30:37;43.20;;;17.33;;
6209;SDS011;3138;52.550;13.148;2023-11-18T09:33:14;27.90;;;16.10;;
6209;SDS011;3138;52.550;13.148;2023-11-18T09:35:51;27.53;;;17.00;;
6209;SDS011;3138;52.550;13.148;2023-11-18T09:38:21;31.57;;;17.70;;
6209;SDS011;3138;52.550;13.148;2023-11-18T09:40:49;25.93;;;15.30;;
6209;SDS011;3138;52.550;13.148;2023-11-18T09:43:19;30.17;;;16.37;;
6209;SDS011;3138;52.550;13.148;2023-11-18T09:45:48;29.30;;;15.30;;
6209;SDS011;3138;52.550;13.148;2023-11-18T09:48:19;25.87;;;15.40;;
6209;SDS011;3138;52.550;13.148;2023-11-18T09:50:51;28.83;;;13.93;;
6209;SDS011;3138;52.550;13.148;2023-11-18T09:53:19;30.60;;;16.20;;
6209;SDS011;3138;52.550;13.148;2023-11-18T09:55:52;32.53;;;15.53;;
6209;SDS011;3138;52.550;13.148;2023-11-18T09:58:25;23.40;;;14.77;;
6209;SDS011;3138;52.550;13.148;2023-11-18T10:01:15;27.77;;;15.33;;
6209;SDS011;3138;52.550;13.148;2023-11-18T10:03:46;23.57;;;14.03;;
6209;SDS011;3138;52.550;13.148;2023-11-18T10:06:14;30.03;;;15.67;;
6209;SDS011;3138;52.550;13.148;2023-11-18T10:08:42;22.40;;;14.23;;
6209;SDS011;3138;52.550;13.148;2023-11-18T10:11:11;24.43;;;15.20;;
6209;SDS011;3138;52.550;13.148;2023-11-18T10:13:38;23.43;;;13.73;;
6209;SDS011;3138;52.550;13.148;2023-11-18T10:16:09;20.00;;;13.00;;
6209;SDS011;3138;52.550;13.148;2023-11-18T10:18:38;24.13;;;13.20;;
6209;SDS011;3138;52.550;13.148;2023-11-18T10:21:14;22.90;;;13.77;;
6209;SDS011;3138;52.550;13.148;2023-11-18T10:23:47;20.60;;;13.60;;
6209;SDS011;3138;52.550;13.148;2023-11-18T10:26:25;21.40;;;13.73;;
6209;SDS011;3138;52.550;13.148;2023-11-18T10:32:15;20.30;;;13.00;;
6209;SDS011;3138;52.550;13.148;2023-11-18T10:34:47;21.00;;;13.20;;
6209;SDS011;3138;52.550;13.148;2023-11-18T10:37:15;30.20;;;12.87;;
6209;SDS011;3138;52.550;13.148;2023-11-18T10:39:46;21.70;;;12.97;;
6209;SDS011;3138;52.550;13.148;2023-11-18T10:42:16;29.93;;;12.83;;
6209;SDS011;3138;52.550;13.148;2023-11-18T10:47:32;16.23;;;11.10;;
6209;SDS011;3138;52.550;13.148;2023-11-18T10:50:01;19.30;;;10.90;;
6209;SDS011;3138;52.550;13.148;2023-11-18T10:52:28;16.90;;;10.73;;
6209;SDS011;3138;52.550;13.148;2023-11-18T10:55:00;30.97;;;11.57;;
6209;SDS011;3138;52.550;13.148;2023-11-18T10:57:36;20.73;;;12.30;;
6209;SDS011;3138;52.550;13.148;2023-11-18T11:00:04;15.17;;;9.60;;
6209;SDS011;3138;52.550;13.148;2023-11-18T11:02:38;14.70;;;10.10;;
6209;SDS011;3138;52.550;13.148;2023-11-18T11:05:07;18.33;;;11.60;;
6209;SDS011;3138;52.550;13.148;2023-11-18T11:07:40;14.97;;;10.20;;
6209;SDS011;3138;52.550;13.148;2023-11-18T11:10:08;18.27;;;11.97;;
6209;SDS011;3138;52.550;13.148;2023-11-18T11:12:36;17.33;;;10.50;;
6209;SDS011;3138;52.550;13.148;2023-11-18T11:15:17;15.73;;;11.10;;
6209;SDS011;3138;52.550;13.148;2023-11-18T11:17:52;15.00;;;10.80;;
6209;SDS011;3138;52.550;13.148;2023-11-18T11:20:22;18.50;;;11.13;;
6209;SDS011;3138;52.550;13.148;2023-11-18T11:22:56;16.10;;;11.70;;
6209;SDS011;3138;52.550;13.148;2023-11-18T11:25:35;16.20;;;11.07;;
6209;SDS011;3138;52.550;13.148;2023-11-18T11:28:11;14.47;;;10.00;;
6209;SDS011;3138;52.550;13.148;2023-11-18T11:30:45;26.77;;;13.57;;
6209;SDS011;3138;52.550;13.148;2023-11-18T11:33:21;21.00;;;11.50;;
6209;SDS011;3138;52.550;13.148;2023-11-18T11:35:59;21.47;;;10.83;;
6209;SDS011;3138;52.550;13.148;2023-11-18T11:38:28;25.60;;;12.50;;
6209;SDS011;3138;52.550;13.148;2023-11-18T11:40:56;19.30;;;11.17;;
6209;SDS011;3138;52.550;13.148;2023-11-18T11:43:27;18.57;;;12.13;;
6209;SDS011;3138;52.550;13.148;2023-11-18T11:45:55;19.50;;;11.73;;
6209;SDS011;3138;52.550;13.148;2023-11-18T11:48:22;16.73;;;10.70;;
6209;SDS011;3138;52.550;13.148;2023-11-18T11:53:52;15.83;;;10.70;;
6209;SDS011;3138;52.550;13.148;2023-11-18T11:56:37;14.33;;;9.33;;
6209;SDS011;3138;52.550;13.148;2023-11-18T11:59:05;19.67;;;11.77;;
6209;SDS011;3138;52.550;13.148;2023-11-18T12:01:36;20.23;;;10.67;;
6209;SDS011;3138;52.550;13.148;2023-11-18T12:04:03;27.27;;;15.13;;
6209;SDS011;3138;52.550;13.148;2023-11-18T12:06:37;17.37;;;11.10;;
6209;SDS011;3138;52.550;13.148;2023-11-18T12:09:09;14.23;;;10.43;;
6209;SDS011;3138;52.550;13.148;2023-11-18T12:11:37;21.93;;;14.30;;
6209;SDS011;3138;52.550;13.148;2023-11-18T12:14:07;18.37;;;11.30;;
6209;SDS011;3138;52.550;13.148;2023-11-18T12:17:01;28.17;;;13.03;;
6209;SDS011;3138;52.550;13.148;2023-11-18T12:19:34;20.50;;;11.40;;
6209;SDS011;3138;52.550;13.148;2023-11-18T12:22:15;12.30;;;8.97;;
6209;SDS011;3138;52.550;13.148;2023-11-18T12:27:57;14.27;;;9.80;;
6209;SDS011;3138;52.550;13.148;2023-11-18T12:30:39;16.90;;;9.57;;
6209;SDS011;3138;52.550;13.148;2023-11-18T12:33:17;15.00;;;9.43;;
6209;SDS011;3138;52.550;13.148;2023-11-18T12:35:51;14.00;;;8.80;;
6209;SDS011;3138;52.550;13.148;2023-11-18T12:38:48;14.90;;;8.50;;
6209;SDS011;3138;52.550;13.148;2023-11-18T12:41:33;16.07;;;9.73;;
6209;SDS011;3138;52.550;13.148;2023-11-18T12:44:08;19.90;;;11.57;;
6209;SDS011;3138;52.550;13.148;2023-11-18T12:46:49;13.23;;;9.00;;
6209;SDS011;3138;52.550;13.148;2023-11-18T12:49:22;10.37;;;8.03;;
6209;SDS011;3138;52.550;13.148;2023-11-18T12:51:50;15.00;;;9.73;;
6209;SDS011;3138;52.550;13.148;2023-11-18T12:54:19;16.73;;;7.67;;
6209;SDS011;3138;52.550;13.148;2023-11-18T12:56:46;15.80;;;8.50;;
6209;SDS011;3138;52.550;13.148;2023-11-18T12:59:15;15.53;;;9.23;;
6209;SDS011;3138;52.550;13.148;2023-11-18T13:01:43;11.60;;;8.10;;
6209;SDS011;3138;52.550;13.148;2023-11-18T13:04:16;8.20;;;6.70;;
6209;SDS011;3138;52.550;13.148;2023-11-18T13:06:45;25.27;;;19.17;;
6209;SDS011;3138;52.550;13.148;2023-11-18T13:09:14;12.57;;;8.10;;
6209;SDS011;3138;52.550;13.148;2023-11-18T13:11:51;10.90;;;8.00;;
6209;SDS011;3138;52.550;13.148;2023-11-18T13:14:21;11.63;;;8.10;;
6209;SDS011;3138;52.550;13.148;2023-11-18T13:16:50;14.87;;;12.60;;
6209;SDS011;3138;52.550;13.148;2023-11-18T13:19:26;11.07;;;9.00;;
6209;SDS011;3138;52.550;13.148;2023-11-18T13:21:57;12.30;;;9.40;;
6209;SDS011;3138;52.550;13.148;2023-11-18T13:24:25;13.40;;;8.13;;
6209;SDS011;3138;52.550;13.148;2023-11-18T13:26:55;12.30;;;7.83;;
6209;SDS011;3138;52.550;13.148;2023-11-18T13:29:23;9.67;;;7.00;;
6209;SDS011;3138;52.550;13.148;2023-11-18T13:31:50;10.63;;;7.73;;
6209;SDS011;3138;52.550;13.148;2023-11-18T13:34:17;11.13;;;8.20;;
6209;SDS011;3138;52.550;13.148;2023-11-18T13:36:45;12.73;;;7.77;;
6209;SDS011;3138;52.550;13.148;2023-11-18T13:39:15;14.23;;;8.37;;
6209;SDS011;3138;52.550;13.148;2023-11-18T13:41:43;11.90;;;7.80;;
6209;SDS011;3138;52.550;13.148;2023-11-18T13:44:12;16.67;;;8.03;;
6209;SDS011;3138;52.550;13.148;2023-11-18T13:46:39;11.43;;;8.40;;
6209;SDS011;3138;52.550;13.148;2023-11-18T13:49:07;11.40;;;8.00;;
6209;SDS011;3138;52.550;13.148;2023-11-18T13:51:34;10.67;;;8.40;;
6209;SDS011;3138;52.550;13.148;2023-11-18T13:54:01;18.10;;;9.40;;
6209;SDS011;3138;52.550;13.148;2023-11-18T13:56:29;12.70;;;8.40;;
6209;SDS011;3138;52.550;13.148;2023-11-18T13:58:57;13.70;;;9.13;;
6209;SDS011;3138;52.550;13.148;2023-11-18T14:01:26;13.50;;;9.00;;
6209;SDS011;3138;52.550;13.148;2023-11-18T14:03:54;11.07;;;7.70;;
6209;SDS011;3138;52.550;13.148;2023-11-18T14:06:26;12.50;;;8.53;;
6209;SDS011;3138;52.550;13.148;2023-11-18T14:08:53;29.07;;;8.73;;
6209;SDS011;3138;52.550;13.148;2023-11-18T14:11:22;15.10;;;8.10;;
6209;SDS011;3138;52.550;13.148;2023-11-18T14:13:49;14.93;;;10.10;;
6209;SDS011;3138;52.550;13.148;2023-11-18T14:16:18;15.10;;;8.60;;
6209;SDS011;3138;52.550;13.148;2023-11-18T14:18:50;13.57;;;9.00;;
6209;SDS011;3138;52.550;13.148;2023-11-18T14:21:16;14.17;;;9.93;;
6209;SDS011;3138;52.550;13.148;2023-11-18T14:23:45;17.90;;;12.23;;
6209;SDS011;3138;52.550;13.148;2023-11-18T14:26:12;16.23;;;11.47;;
6209;SDS011;3138;52.550;13.148;2023-11-18T14:28:39;23.00;;;13.40;;
6209;SDS011;3138;52.550;13.148;2023-11-18T14:31:07;20.03;;;12.27;;
6209;SDS011;3138;52.550;13.148;2023-11-18T14:33:36;18.67;;;11.40;;
6209;SDS011;3138;52.550;13.148;2023-11-18T14:36:04;18.70;;;12.47;;
6209;SDS011;3138;52.550;13.148;2023-11-18T14:38:34;23.80;;;13.20;;
6209;SDS011;3138;52.550;13.148;2023-11-18T14:41:01;19.10;;;11.40;;
6209;SDS011;3138;52.550;13.148;2023-11-18T14:43:29;18.17;;;11.77;;
6209;SDS011;3138;52.550;13.148;2023-11-18T14:45:56;20.97;;;12.43;;
6209;SDS011;3138;52.550;13.148;2023-11-18T14:48:23;20.27;;;11.10;;
6209;SDS011;3138;52.550;13.148;2023-11-18T14:50:51;20.90;;;11.67;;
6209;SDS011;3138;52.550;13.148;2023-11-18T14:53:21;21.57;;;12.43;;
6209;SDS011;3138;52.550;13.148;2023-11-18T14:55:48;17.30;;;11.40;;
6209;SDS011;3138;52.550;13.148;2023-11-18T14:58:15;18.70;;;11.90;;
6209;SDS011;3138;52.550;13.148;2023-11-18T15:00:42;20.30;;;11.90;;